sensor_id;sensor_type;location;lat;lon;timestamp;pressure;altitude;pressure_sealevel;temperature;humidity
43770;BME280;6597;52.218;9.882;2022-10-16T00:00:43;100300.47;;;13.19;98.70
43770;BME280;6597;52.218;9.882;2022-10-16T00:03:10;100303.22;;;13.16;99.39
43770;BME280;6597;52.218;9.882;2022-10-16T00:05:41;100309.59;;;13.12;99.11
43770;BME280;6597;52.218;9.882;2022-10-16T00:08:09;100306.28;;;13.08;99.99
43770;BME280;6597;52.218;9.882;2022-10-16T00:10:36;100310.78;;;13.06;100.00
43770;BME280;6597;52.218;9.882;2022-10-16T00:13:05;100300.47;;;13.01;100.00
43770;BME280;6597;52.218;9.882;2022-10-16T00:15:32;100306.66;;;13.00;100.00
43770;BME280;6597;52.218;9.882;2022-10-16T00:18:01;100302.41;;;12.98;100.00
43770;BME280;6597;52.218;9.882;2022-10-16T00:20:28;100312.94;;;12.98;100.00
43770;BME280;6597;52.218;9.882;2022-10-16T00:22:56;100321.59;;;13.00;100.00
43770;BME280;6597;52.218;9.882;2022-10-16T00:25:23;100308.69;;;12.95;100.00
43770;BME280;6597;52.218;9.882;2022-10-16T00:27:49;100307.81;;;12.95;100.00
43770;BME280;6597;52.218;9.882;2022-10-16T00:30:17;100310.38;;;12.96;100.00
43770;BME280;6597;52.218;9.882;2022-10-16T00:32:44;100310.22;;;12.99;100.00
43770;BME280;6597;52.218;9.882;2022-10-16T00:35:10;100323.34;;;13.01;100.00
43770;BME280;6597;52.218;9.882;2022-10-16T00:37:37;100328.53;;;13.02;100.00
43770;BME280;6597;52.218;9.882;2022-10-16T00:40:04;100325.97;;;13.01;100.00
43770;BME280;6597;52.218;9.882;2022-10-16T00:42:31;100332.94;;;13.02;100.00
43770;BME280;6597;52.218;9.882;2022-10-16T00:44:57;100332.09;;;13.01;100.00
43770;BME280;6597;52.218;9.882;2022-10-16T00:47:29;100326.09;;;12.98;100.00
43770;BME280;6597;52.218;9.882;2022-10-16T00:50:00;100328.75;;;12.98;100.00
43770;BME280;6597;52.218;9.882;2022-10-16T00:52:28;100329.47;;;13.01;100.00
43770;BME280;6597;52.218;9.882;2022-10-16T00:54:56;100338.22;;;13.02;100.00
43770;BME280;6597;52.218;9.882;2022-10-16T00:57:23;100335.50;;;13.03;100.00
43770;BME280;6597;52.218;9.882;2022-10-16T00:59:50;100329.22;;;13.06;100.00
43770;BME280;6597;52.218;9.882;2022-10-16T01:02:17;100339.53;;;13.11;100.00
43770;BME280;6597;52.218;9.882;2022-10-16T01:04:48;100349.97;;;13.12;100.00
43770;BME280;6597;52.218;9.882;2022-10-16T01:07:27;100339.53;;;13.11;100.00
43770;BME280;6597;52.218;9.882;2022-10-16T01:10:04;100329.91;;;13.09;100.00
43770;BME280;6597;52.218;9.882;2022-10-16T01:12:40;100330.94;;;13.07;100.00
43770;BME280;6597;52.218;9.882;2022-10-16T01:15:11;100330.94;;;13.07;100.00
43770;BME280;6597;52.218;9.882;2022-10-16T01:17:43;100329.22;;;13.06;100.00
43770;BME280;6597;52.218;9.882;2022-10-16T01:20:20;100321.47;;;13.03;100.00
43770;BME280;6597;52.218;9.882;2022-10-16T01:23:06;100320.84;;;12.98;100.00
43770;BME280;6597;52.218;9.882;2022-10-16T01:25:58;100336.88;;;12.93;100.00
43770;BME280;6597;52.218;9.882;2022-10-16T01:28:30;100339.84;;;12.87;100.00
43770;BME280;6597;52.218;9.882;2022-10-16T01:30:59;100344.41;;;12.84;100.00
43770;BME280;6597;52.218;9.882;2022-10-16T01:33:30;100341.16;;;12.78;100.00
43770;BME280;6597;52.218;9.882;2022-10-16T01:36:05;100346.59;;;12.75;100.00
43770;BME280;6597;52.218;9.882;2022-10-16T01:38:36;100344.97;;;12.73;100.00
43770;BME280;6597;52.218;9.882;2022-10-16T01:41:07;100345.22;;;12.68;100.00
43770;BME280;6597;52.218;9.882;2022-10-16T01:43:40;100350.69;;;12.64;100.00
43770;BME280;6597;52.218;9.882;2022-10-16T01:46:08;100357.88;;;12.60;100.00
43770;BME280;6597;52.218;9.882;2022-10-16T01:48:36;100357.34;;;12.54;100.00
43770;BME280;6597;52.218;9.882;2022-10-16T01:51:07;100365.31;;;12.52;100.00
43770;BME280;6597;52.218;9.882;2022-10-16T01:53:35;100362.91;;;12.48;100.00
43770;BME280;6597;52.218;9.882;2022-10-16T01:56:03;100360.50;;;12.43;100.00
43770;BME280;6597;52.218;9.882;2022-10-16T01:58:35;100367.72;;;12.39;100.00
43770;BME280;6597;52.218;9.882;2022-10-16T02:01:07;100361.66;;;12.37;100.00
43770;BME280;6597;52.218;9.882;2022-10-16T02:03:36;100364.38;;;12.36;100.00
43770;BME280;6597;52.218;9.882;2022-10-16T02:06:04;100367.91;;;12.35;100.00
43770;BME280;6597;52.218;9.882;2022-10-16T02:08:31;100364.50;;;12.33;100.00
43770;BME280;6597;52.218;9.882;2022-10-16T02:10:59;100374.25;;;12.31;100.00
43770;BME280;6597;52.218;9.882;2022-10-16T02:13:30;100373.47;;;12.29;100.00
43770;BME280;6597;52.218;9.882;2022-10-16T02:15:57;100380.44;;;12.30;100.00
43770;BME280;6597;52.218;9.882;2022-10-16T02:18:25;100374.31;;;12.29;100.00
43770;BME280;6597;52.218;9.882;2022-10-16T02:20:57;100384.84;;;12.29;100.00
43770;BME280;6597;52.218;9.882;2022-10-16T02:23:30;100387.56;;;12.28;100.00
43770;BME280;6597;52.218;9.882;2022-10-16T02:26:03;100384.84;;;12.29;100.00
43770;BME280;6597;52.218;9.882;2022-10-16T02:28:37;100388.41;;;12.28;100.00
43770;BME280;6597;52.218;9.882;2022-10-16T02:31:07;100397.94;;;12.31;100.00
43770;BME280;6597;52.218;9.882;2022-10-16T02:33:36;100395.38;;;12.29;100.00
43770;BME280;6597;52.218;9.882;2022-10-16T02:36:05;100389.09;;;12.32;100.00
43770;BME280;6597;52.218;9.882;2022-10-16T02:38:32;100394.09;;;12.38;100.00
43770;BME280;6597;52.218;9.882;2022-10-16T02:40:59;100388.53;;;12.44;100.00
43770;BME280;6597;52.218;9.882;2022-10-16T02:43:25;100376.16;;;12.46;100.00
43770;BME280;6597;52.218;9.882;2022-10-16T02:45:52;100379.72;;;12.45;100.00
43770;BME280;6597;52.218;9.882;2022-10-16T02:48:18;100379.78;;;12.43;100.00
43770;BME280;6597;52.218;9.882;2022-10-16T02:50:46;100377.09;;;12.45;100.00
43770;BME280;6597;52.218;9.882;2022-10-16T02:53:13;100377.00;;;12.46;100.00
43770;BME280;6597;52.218;9.882;2022-10-16T02:55:39;100379.47;;;12.50;100.00
43770;BME280;6597;52.218;9.882;2022-10-16T02:58:06;100381.13;;;12.52;100.00
43770;BME280;6597;52.218;9.882;2022-10-16T03:00:32;100372.97;;;12.57;100.00
43770;BME280;6597;52.218;9.882;2022-10-16T03:02:59;100375.38;;;12.61;100.00
43770;BME280;6597;52.218;9.882;2022-10-16T03:05:26;100374.38;;;12.64;100.00
43770;BME280;6597;52.218;9.882;2022-10-16T03:07:53;100374.31;;;12.65;100.00
43770;BME280;6597;52.218;9.882;2022-10-16T03:10:20;100375.72;;;12.72;100.00
43770;BME280;6597;52.218;9.882;2022-10-16T03:12:47;100364.72;;;12.82;100.00
43770;BME280;6597;52.218;9.882;2022-10-16T03:15:14;100365.25;;;12.88;100.00
43770;BME280;6597;52.218;9.882;2022-10-16T03:17:40;100364.94;;;12.94;100.00
43770;BME280;6597;52.218;9.882;2022-10-16T03:20:07;100365.25;;;13.05;100.00
43770;BME280;6597;52.218;9.882;2022-10-16T03:22:34;100366.66;;;13.13;100.00
43770;BME280;6597;52.218;9.882;2022-10-16T03:25:02;100367.19;;;13.19;100.00
43770;BME280;6597;52.218;9.882;2022-10-16T03:27:28;100369.75;;;13.21;100.00
43770;BME280;6597;52.218;9.882;2022-10-16T03:29:55;100367.81;;;13.24;100.00
43770;BME280;6597;52.218;9.882;2022-10-16T03:32:22;100380.81;;;13.27;100.00
43770;BME280;6597;52.218;9.882;2022-10-16T03:34:50;100386.88;;;13.29;100.00
43770;BME280;6597;52.218;9.882;2022-10-16T03:37:18;100378.81;;;13.32;100.00
43770;BME280;6597;52.218;9.882;2022-10-16T03:39:44;100369.06;;;13.34;100.00
43770;BME280;6597;52.218;9.882;2022-10-16T03:42:12;100379.44;;;13.37;100.00
43770;BME280;6597;52.218;9.882;2022-10-16T03:44:39;100388.72;;;13.45;100.00
43770;BME280;6597;52.218;9.882;2022-10-16T03:47:05;100386.00;;;13.46;100.00
43770;BME280;6597;52.218;9.882;2022-10-16T03:49:32;100381.41;;;13.50;100.00
43770;BME280;6597;52.218;9.882;2022-10-16T03:51:58;100382.94;;;13.54;100.00
43770;BME280;6597;52.218;9.882;2022-10-16T03:54:25;100381.94;;;13.56;100.00
43770;BME280;6597;52.218;9.882;2022-10-16T03:56:51;100376.50;;;13.59;100.00
43770;BME280;6597;52.218;9.882;2022-10-16T03:59:19;100378.13;;;13.62;100.00
43770;BME280;6597;52.218;9.882;2022-10-16T04:01:46;100385.16;;;13.61;100.00
43770;BME280;6597;52.218;9.882;2022-10-16T04:04:12;100386.09;;;13.60;100.00
43770;BME280;6597;52.218;9.882;2022-10-16T04:06:39;100385.84;;;13.65;100.00
43770;BME280;6597;52.218;9.882;2022-10-16T04:09:06;100375.31;;;13.65;100.00
43770;BME280;6597;52.218;9.882;2022-10-16T04:11:32;100380.75;;;13.62;100.00
43770;BME280;6597;52.218;9.882;2022-10-16T04:13:59;100385.16;;;13.61;100.00
43770;BME280;6597;52.218;9.882;2022-10-16T04:16:27;100388.75;;;13.60;100.00
43770;BME280;6597;52.218;9.882;2022-10-16T04:18:53;100388.66;;;13.62;100.00
43770;BME280;6597;52.218;9.882;2022-10-16T04:21:20;100405.19;;;13.65;100.00
43770;BME280;6597;52.218;9.882;2022-10-16T04:23:47;100406.06;;;13.66;100.00
43770;BME280;6597;52.218;9.882;2022-10-16T04:26:14;100410.53;;;13.64;100.00
43770;BME280;6597;52.218;9.882;2022-10-16T04:28:41;100414.28;;;13.60;100.00
43770;BME280;6597;52.218;9.882;2022-10-16T04:31:07;100419.63;;;13.58;100.00
43770;BME280;6597;52.218;9.882;2022-10-16T04:33:35;100414.34;;;13.58;100.00
43770;BME280;6597;52.218;9.882;2022-10-16T04:36:03;100411.03;;;13.55;100.00
43770;BME280;6597;52.218;9.882;2022-10-16T04:38:30;100421.06;;;13.48;100.00
43770;BME280;6597;52.218;9.882;2022-10-16T04:40:56;100423.00;;;13.45;100.00
43770;BME280;6597;52.218;9.882;2022-10-16T04:43:23;100420.53;;;13.42;100.00
43770;BME280;6597;52.218;9.882;2022-10-16T04:45:49;100401.31;;;13.39;100.00
43770;BME280;6597;52.218;9.882;2022-10-16T04:48:17;100406.91;;;13.33;100.00
43770;BME280;6597;52.218;9.882;2022-10-16T04:50:44;100406.09;;;13.31;100.00
43770;BME280;6597;52.218;9.882;2022-10-16T04:53:11;100407.75;;;13.34;100.00
43770;BME280;6597;52.218;9.882;2022-10-16T04:55:38;100404.25;;;13.33;100.00
43770;BME280;6597;52.218;9.882;2022-10-16T04:58:05;100416.63;;;13.31;100.00
43770;BME280;6597;52.218;9.882;2022-10-16T05:00:31;100424.72;;;13.28;100.00
43770;BME280;6597;52.218;9.882;2022-10-16T05:02:58;100423.00;;;13.27;100.00
43770;BME280;6597;52.218;9.882;2022-10-16T05:05:26;100416.03;;;13.26;100.00
43770;BME280;6597;52.218;9.882;2022-10-16T05:07:54;100423.31;;;13.21;100.00
43770;BME280;6597;52.218;9.882;2022-10-16T05:10:20;100440.06;;;13.20;100.00
43770;BME280;6597;52.218;9.882;2022-10-16T05:12:47;100432.25;;;13.19;100.00
43770;BME280;6597;52.218;9.882;2022-10-16T05:15:13;100430.75;;;13.13;100.00
43770;BME280;6597;52.218;9.882;2022-10-16T05:17:40;100426.47;;;13.11;100.00
43770;BME280;6597;52.218;9.882;2022-10-16T05:20:07;100437.25;;;13.06;100.00
43770;BME280;6597;52.218;9.882;2022-10-16T05:22:33;100427.81;;;13.02;100.00
43770;BME280;6597;52.218;9.882;2022-10-16T05:25:01;100437.78;;;12.95;100.00
43770;BME280;6597;52.218;9.882;2022-10-16T05:27:28;100447.78;;;12.89;100.00
43770;BME280;6597;52.218;9.882;2022-10-16T05:29:54;100449.88;;;12.82;100.00
43770;BME280;6597;52.218;9.882;2022-10-16T05:32:21;100457.06;;;12.78;100.00
43770;BME280;6597;52.218;9.882;2022-10-16T05:34:47;100453.03;;;12.71;100.00
43770;BME280;6597;52.218;9.882;2022-10-16T05:37:14;100463.06;;;12.63;100.00
43770;BME280;6597;52.218;9.882;2022-10-16T05:39:40;100463.22;;;12.60;100.00
43770;BME280;6597;52.218;9.882;2022-10-16T05:42:08;100464.28;;;12.56;100.00
43770;BME280;6597;52.218;9.882;2022-10-16T05:44:35;100462.66;;;12.54;100.00
43770;BME280;6597;52.218;9.882;2022-10-16T05:47:01;100460.31;;;12.48;100.00
43770;BME280;6597;52.218;9.882;2022-10-16T05:49:28;100464.03;;;12.43;100.00
43770;BME280;6597;52.218;9.882;2022-10-16T05:51:54;100465.88;;;12.41;100.00
43770;BME280;6597;52.218;9.882;2022-10-16T05:54:21;100465.03;;;12.41;100.00
43770;BME280;6597;52.218;9.882;2022-10-16T05:56:47;100463.09;;;12.44;100.00
43770;BME280;6597;52.218;9.882;2022-10-16T05:59:15;100470.00;;;12.47;100.00
43770;BME280;6597;52.218;9.882;2022-10-16T06:01:42;100477.91;;;12.47;100.00
43770;BME280;6597;52.218;9.882;2022-10-16T06:04:08;100492.84;;;12.46;100.00
43770;BME280;6597;52.218;9.882;2022-10-16T06:06:35;100487.50;;;12.48;100.00
43770;BME280;6597;52.218;9.882;2022-10-16T06:09:03;100486.50;;;12.51;100.00
43770;BME280;6597;52.218;9.882;2022-10-16T06:11:31;100489.06;;;12.52;100.00
43770;BME280;6597;52.218;9.882;2022-10-16T06:14:00;100486.44;;;12.52;100.00
43770;BME280;6597;52.218;9.882;2022-10-16T06:16:29;100478.59;;;12.51;100.00
43770;BME280;6597;52.218;9.882;2022-10-16T06:18:56;100481.16;;;12.52;100.00
43770;BME280;6597;52.218;9.882;2022-10-16T06:21:26;100484.50;;;12.56;100.00
43770;BME280;6597;52.218;9.882;2022-10-16T06:23:53;100491.25;;;12.61;100.00
43770;BME280;6597;52.218;9.882;2022-10-16T06:26:22;100502.41;;;12.66;100.00
43770;BME280;6597;52.218;9.882;2022-10-16T06:28:48;100509.28;;;12.70;100.00
43770;BME280;6597;52.218;9.882;2022-10-16T06:31:16;100514.25;;;12.76;100.00
43770;BME280;6597;52.218;9.882;2022-10-16T06:33:44;100519.91;;;12.86;100.00
43770;BME280;6597;52.218;9.882;2022-10-16T06:36:13;100518.53;;;12.96;100.00
43770;BME280;6597;52.218;9.882;2022-10-16T06:38:40;100516.41;;;13.04;100.00
43770;BME280;6597;52.218;9.882;2022-10-16T06:41:09;100509.88;;;13.12;100.00
43770;BME280;6597;52.218;9.882;2022-10-16T06:43:36;100519.06;;;13.22;100.00
43770;BME280;6597;52.218;9.882;2022-10-16T06:46:04;100528.28;;;13.30;100.00
43770;BME280;6597;52.218;9.882;2022-10-16T06:48:32;100523.28;;;13.43;100.00
43770;BME280;6597;52.218;9.882;2022-10-16T06:51:03;100519.16;;;13.55;100.00
43770;BME280;6597;52.218;9.882;2022-10-16T06:53:33;100531.56;;;13.70;100.00
43770;BME280;6597;52.218;9.882;2022-10-16T06:56:06;100531.47;;;14.22;100.00
43770;BME280;6597;52.218;9.882;2022-10-16T06:58:33;100538.03;;;15.25;100.00
43770;BME280;6597;52.218;9.882;2022-10-16T07:00:59;100539.09;;;16.39;98.23
43770;BME280;6597;52.218;9.882;2022-10-16T07:03:26;100541.53;;;17.52;87.21
43770;BME280;6597;52.218;9.882;2022-10-16T07:05:52;100537.44;;;18.37;80.81
43770;BME280;6597;52.218;9.882;2022-10-16T07:08:20;100525.59;;;19.03;77.21
43770;BME280;6597;52.218;9.882;2022-10-16T07:10:47;100526.47;;;19.62;74.97
43770;BME280;6597;52.218;9.882;2022-10-16T07:13:13;100528.34;;;20.06;71.23
43770;BME280;6597;52.218;9.882;2022-10-16T07:15:40;100538.06;;;20.41;70.25
43770;BME280;6597;52.218;9.882;2022-10-16T07:18:07;100551.16;;;20.66;68.31
43770;BME280;6597;52.218;9.882;2022-10-16T07:20:33;100551.72;;;20.03;67.97
43770;BME280;6597;52.218;9.882;2022-10-16T07:23:00;100552.97;;;19.64;69.54
43770;BME280;6597;52.218;9.882;2022-10-16T07:25:28;100547.59;;;19.52;70.83
43770;BME280;6597;52.218;9.882;2022-10-16T07:27:54;100554.78;;;19.39;70.87
43770;BME280;6597;52.218;9.882;2022-10-16T07:30:22;100569.78;;;19.40;71.29
43770;BME280;6597;52.218;9.882;2022-10-16T07:32:48;100554.56;;;19.66;70.17
43770;BME280;6597;52.218;9.882;2022-10-16T07:35:15;100566.44;;;19.49;70.24
43770;BME280;6597;52.218;9.882;2022-10-16T07:37:44;100583.94;;;19.53;70.15
43770;BME280;6597;52.218;9.882;2022-10-16T07:40:10;100587.44;;;19.54;70.31
43770;BME280;6597;52.218;9.882;2022-10-16T07:42:38;100576.66;;;19.32;70.40
43770;BME280;6597;52.218;9.882;2022-10-16T07:45:06;100579.00;;;19.47;70.56
43770;BME280;6597;52.218;9.882;2022-10-16T07:47:32;100580.22;;;19.67;69.10
43770;BME280;6597;52.218;9.882;2022-10-16T07:49:59;100590.97;;;20.12;69.05
43770;BME280;6597;52.218;9.882;2022-10-16T07:52:25;100592.28;;;20.06;67.54
43770;BME280;6597;52.218;9.882;2022-10-16T07:54:52;100594.03;;;20.30;67.87
43770;BME280;6597;52.218;9.882;2022-10-16T07:57:18;100592.13;;;20.65;65.85
43770;BME280;6597;52.218;9.882;2022-10-16T07:59:46;100599.88;;;20.79;64.37
43770;BME280;6597;52.218;9.882;2022-10-16T08:02:13;100612.09;;;20.26;65.38
43770;BME280;6597;52.218;9.882;2022-10-16T08:04:39;100605.38;;;19.63;68.19
43770;BME280;6597;52.218;9.882;2022-10-16T08:07:07;100600.03;;;18.91;71.54
43770;BME280;6597;52.218;9.882;2022-10-16T08:09:33;100602.34;;;18.96;72.88
43770;BME280;6597;52.218;9.882;2022-10-16T08:12:00;100617.44;;;19.32;71.69
43770;BME280;6597;52.218;9.882;2022-10-16T08:14:27;100612.69;;;19.24;71.52
43770;BME280;6597;52.218;9.882;2022-10-16T08:16:55;100627.53;;;19.03;72.69
43770;BME280;6597;52.218;9.882;2022-10-16T08:19:22;100622.66;;;18.97;72.61
43770;BME280;6597;52.218;9.882;2022-10-16T08:21:48;100638.59;;;19.34;72.72
43770;BME280;6597;52.218;9.882;2022-10-16T08:24:15;100634.66;;;19.63;72.13
43770;BME280;6597;52.218;9.882;2022-10-16T08:26:41;100640.09;;;19.85;69.98
43770;BME280;6597;52.218;9.882;2022-10-16T08:29:08;100634.47;;;19.77;69.53
43770;BME280;6597;52.218;9.882;2022-10-16T08:31:34;100642.97;;;19.35;69.71
43770;BME280;6597;52.218;9.882;2022-10-16T08:34:02;100641.16;;;18.99;71.01
43770;BME280;6597;52.218;9.882;2022-10-16T08:36:29;100643.66;;;19.13;71.67
43770;BME280;6597;52.218;9.882;2022-10-16T08:38:55;100643.59;;;19.38;71.69
43770;BME280;6597;52.218;9.882;2022-10-16T08:44:36;100649.97;;;20.07;68.01
43770;BME280;6597;52.218;9.882;2022-10-16T08:47:13;100644.44;;;20.22;67.41
43770;BME280;6597;52.218;9.882;2022-10-16T08:49:53;100648.78;;;20.23;66.77
43770;BME280;6597;52.218;9.882;2022-10-16T08:52:28;100648.38;;;20.16;66.68
43770;BME280;6597;52.218;9.882;2022-10-16T08:54:56;100649.09;;;20.07;67.36
43770;BME280;6597;52.218;9.882;2022-10-16T08:57:25;100643.88;;;19.94;67.48
43770;BME280;6597;52.218;9.882;2022-10-16T08:59:52;100658.88;;;19.47;66.96
43770;BME280;6597;52.218;9.882;2022-10-16T09:02:27;100657.41;;;19.19;68.98
43770;BME280;6597;52.218;9.882;2022-10-16T09:08:05;100648.66;;;18.55;69.78
43770;BME280;6597;52.218;9.882;2022-10-16T09:10:40;100663.75;;;18.55;70.79
43770;BME280;6597;52.218;9.882;2022-10-16T09:13:17;100671.22;;;18.62;71.19
43770;BME280;6597;52.218;9.882;2022-10-16T09:15:49;100678.66;;;18.70;69.94
43770;BME280;6597;52.218;9.882;2022-10-16T09:18:24;100669.81;;;18.82;69.67
43770;BME280;6597;52.218;9.882;2022-10-16T09:20:59;100675.75;;;18.99;69.80
43770;BME280;6597;52.218;9.882;2022-10-16T09:23:33;100681.69;;;19.51;68.00
43770;BME280;6597;52.218;9.882;2022-10-16T09:26:01;100674.19;;;20.04;65.32
43770;BME280;6597;52.218;9.882;2022-10-16T09:28:28;100673.56;;;20.47;63.62
43770;BME280;6597;52.218;9.882;2022-10-16T09:30:55;100683.78;;;20.64;63.06
43770;BME280;6597;52.218;9.882;2022-10-16T09:33:24;100682.59;;;20.91;61.76
43770;BME280;6597;52.218;9.882;2022-10-16T09:35:54;100689.63;;;20.92;60.24
43770;BME280;6597;52.218;9.882;2022-10-16T09:38:26;100689.84;;;21.00;61.01
43770;BME280;6597;52.218;9.882;2022-10-16T09:40:53;100695.56;;;21.18;59.58
43770;BME280;6597;52.218;9.882;2022-10-16T09:43:23;100694.59;;;21.30;59.22
43770;BME280;6597;52.218;9.882;2022-10-16T09:45:57;100698.34;;;21.50;58.58
43770;BME280;6597;52.218;9.882;2022-10-16T09:48:27;100708.28;;;21.48;58.12
43770;BME280;6597;52.218;9.882;2022-10-16T09:51:01;100711.97;;;21.24;56.89
43770;BME280;6597;52.218;9.882;2022-10-16T09:53:39;100704.66;;;21.15;57.35
43770;BME280;6597;52.218;9.882;2022-10-16T09:56:06;100702.34;;;21.33;57.76
43770;BME280;6597;52.218;9.882;2022-10-16T09:58:32;100711.97;;;21.67;57.43
43770;BME280;6597;52.218;9.882;2022-10-16T10:00:59;100716.13;;;22.03;56.03
43770;BME280;6597;52.218;9.882;2022-10-16T10:03:33;100717.22;;;22.12;54.58
43770;BME280;6597;52.218;9.882;2022-10-16T10:06:06;100710.03;;;22.13;53.98
43770;BME280;6597;52.218;9.882;2022-10-16T10:08:41;100716.81;;;22.38;54.23
43770;BME280;6597;52.218;9.882;2022-10-16T10:11:07;100718.91;;;22.55;53.00
43770;BME280;6597;52.218;9.882;2022-10-16T10:13:34;100724.31;;;22.64;52.11
43770;BME280;6597;52.218;9.882;2022-10-16T10:16:00;100710.22;;;22.62;51.15
43770;BME280;6597;52.218;9.882;2022-10-16T10:18:27;100724.19;;;22.66;50.72
43770;BME280;6597;52.218;9.882;2022-10-16T10:20:57;100733.13;;;22.55;50.21
43770;BME280;6597;52.218;9.882;2022-10-16T10:23:28;100726.41;;;22.40;50.45
43770;BME280;6597;52.218;9.882;2022-10-16T10:26:00;100730.94;;;22.08;49.96
43770;BME280;6597;52.218;9.882;2022-10-16T10:28:47;100732.06;;;21.94;50.79
43770;BME280;6597;52.218;9.882;2022-10-16T10:31:21;100734.16;;;21.90;51.73
43770;BME280;6597;52.218;9.882;2022-10-16T10:33:56;100737.41;;;21.51;52.88
43770;BME280;6597;52.218;9.882;2022-10-16T10:36:29;100736.41;;;21.63;52.31
43770;BME280;6597;52.218;9.882;2022-10-16T10:39:00;100739.31;;;22.14;52.79
43770;BME280;6597;52.218;9.882;2022-10-16T10:41:56;100739.19;;;22.36;49.98
43770;BME280;6597;52.218;9.882;2022-10-16T10:44:42;100740.94;;;22.26;50.60
43770;BME280;6597;52.218;9.882;2022-10-16T10:47:18;100749.75;;;22.17;50.65
43770;BME280;6597;52.218;9.882;2022-10-16T10:49:56;100747.88;;;22.29;50.46
43770;BME280;6597;52.218;9.882;2022-10-16T10:52:50;100755.38;;;22.56;49.30
43770;BME280;6597;52.218;9.882;2022-10-16T10:55:23;100752.72;;;22.77;47.98
43770;BME280;6597;52.218;9.882;2022-10-16T10:58:04;100752.22;;;22.83;48.00
43770;BME280;6597;52.218;9.882;2022-10-16T11:00:44;100750.25;;;22.85;47.82
43770;BME280;6597;52.218;9.882;2022-10-16T11:03:27;100754.97;;;23.02;47.32
43770;BME280;6597;52.218;9.882;2022-10-16T11:06:00;100746.38;;;23.08;46.77
43770;BME280;6597;52.218;9.882;2022-10-16T11:08:35;100749.88;;;23.29;46.66
43770;BME280;6597;52.218;9.882;2022-10-16T11:11:07;100751.59;;;23.40;45.82
43770;BME280;6597;52.218;9.882;2022-10-16T11:13:38;100757.00;;;23.50;46.08
43770;BME280;6597;52.218;9.882;2022-10-16T11:16:14;100748.59;;;23.74;45.71
43770;BME280;6597;52.218;9.882;2022-10-16T11:18:47;100750.50;;;24.12;45.62
43770;BME280;6597;52.218;9.882;2022-10-16T11:21:18;100752.91;;;24.44;43.96
43770;BME280;6597;52.218;9.882;2022-10-16T11:23:51;100752.00;;;24.63;41.75
43770;BME280;6597;52.218;9.882;2022-10-16T11:26:25;100756.81;;;24.78;41.93
43770;BME280;6597;52.218;9.882;2022-10-16T11:28:55;100756.56;;;24.24;41.25
43770;BME280;6597;52.218;9.882;2022-10-16T11:31:28;100768.38;;;23.82;43.33
43770;BME280;6597;52.218;9.882;2022-10-16T11:34:01;100764.41;;;23.37;43.13
43770;BME280;6597;52.218;9.882;2022-10-16T11:36:34;100777.16;;;23.44;44.70
43770;BME280;6597;52.218;9.882;2022-10-16T11:39:10;100780.75;;;23.74;44.08
43770;BME280;6597;52.218;9.882;2022-10-16T11:41:42;100780.09;;;23.81;43.38
43770;BME280;6597;52.218;9.882;2022-10-16T11:44:20;100780.03;;;23.62;43.79
43770;BME280;6597;52.218;9.882;2022-10-16T11:46:59;100784.84;;;23.68;43.65
43770;BME280;6597;52.218;9.882;2022-10-16T11:49:31;100785.88;;;23.86;43.55
43770;BME280;6597;52.218;9.882;2022-10-16T11:52:03;100786.69;;;23.68;42.72
43770;BME280;6597;52.218;9.882;2022-10-16T11:54:37;100794.66;;;23.18;43.17
43770;BME280;6597;52.218;9.882;2022-10-16T11:57:10;100791.69;;;22.90;44.14
43770;BME280;6597;52.218;9.882;2022-10-16T11:59:43;100793.00;;;22.43;44.80
43770;BME280;6597;52.218;9.882;2022-10-16T12:02:28;100791.19;;;22.44;45.38
43770;BME280;6597;52.218;9.882;2022-10-16T12:05:03;100801.81;;;22.87;45.16
43770;BME280;6597;52.218;9.882;2022-10-16T12:07:35;100804.22;;;23.11;43.89
43770;BME280;6597;52.218;9.882;2022-10-16T12:10:11;100808.22;;;23.26;43.85
43770;BME280;6597;52.218;9.882;2022-10-16T12:12:46;100799.09;;;23.08;43.63
43770;BME280;6597;52.218;9.882;2022-10-16T12:15:21;100806.63;;;22.51;44.70
43770;BME280;6597;52.218;9.882;2022-10-16T12:17:48;100815.34;;;22.53;45.14
43770;BME280;6597;52.218;9.882;2022-10-16T12:20:26;100805.50;;;22.54;45.43
43770;BME280;6597;52.218;9.882;2022-10-16T12:22:58;100811.25;;;22.49;45.54
43770;BME280;6597;52.218;9.882;2022-10-16T12:25:27;100810.59;;;22.25;45.74
43770;BME280;6597;52.218;9.882;2022-10-16T12:28:01;100814.19;;;22.46;45.39
43770;BME280;6597;52.218;9.882;2022-10-16T12:30:31;100806.38;;;22.43;46.06
43770;BME280;6597;52.218;9.882;2022-10-16T12:33:00;100808.97;;;21.90;46.16
43770;BME280;6597;52.218;9.882;2022-10-16T12:35:30;100817.53;;;21.51;47.45
43770;BME280;6597;52.218;9.882;2022-10-16T12:38:06;100816.75;;;22.04;47.68
43770;BME280;6597;52.218;9.882;2022-10-16T12:40:35;100810.13;;;22.52;45.08
43770;BME280;6597;52.218;9.882;2022-10-16T12:43:26;100807.53;;;23.03;43.06
43770;BME280;6597;52.218;9.882;2022-10-16T12:46:01;100815.03;;;23.40;42.99
43770;BME280;6597;52.218;9.882;2022-10-16T12:48:29;100816.50;;;23.13;43.44
43770;BME280;6597;52.218;9.882;2022-10-16T12:50:56;100816.63;;;22.91;44.33
43770;BME280;6597;52.218;9.882;2022-10-16T12:53:25;100819.81;;;23.06;43.92
43770;BME280;6597;52.218;9.882;2022-10-16T12:56:03;100821.31;;;23.50;43.24
43770;BME280;6597;52.218;9.882;2022-10-16T12:58:51;100830.25;;;23.60;41.64
43770;BME280;6597;52.218;9.882;2022-10-16T13:01:29;100830.47;;;23.78;42.17
43770;BME280;6597;52.218;9.882;2022-10-16T13:04:16;100837.53;;;23.88;41.65
43770;BME280;6597;52.218;9.882;2022-10-16T13:06:51;100846.22;;;23.71;42.67
43770;BME280;6597;52.218;9.882;2022-10-16T13:09:29;100836.34;;;23.72;41.80
43770;BME280;6597;52.218;9.882;2022-10-16T13:12:11;100836.84;;;23.96;41.37
43770;BME280;6597;52.218;9.882;2022-10-16T13:17:43;100840.81;;;23.62;41.54